createdAt,value
2023-02-24T00:00:56.678Z,2.21
2023-02-24T00:03:26.130Z,2.20
2023-02-24T00:05:55.610Z,2.19
2023-02-24T00:08:25.196Z,2.24
2023-02-24T00:10:57.676Z,2.21
2023-02-24T00:13:27.053Z,2.15
2023-02-24T00:16:03.874Z,2.12
2023-02-24T00:18:34.422Z,2.16
2023-02-24T00:21:10.894Z,2.20
2023-02-24T00:23:41.329Z,2.19
2023-02-24T00:26:14.720Z,2.16
2023-02-24T00:28:44.411Z,2.17
2023-02-24T00:31:16.069Z,2.19
2023-02-24T00:33:47.288Z,2.17
2023-02-24T00:36:23.778Z,2.11
2023-02-24T00:38:55.751Z,2.14
2023-02-24T00:41:29.738Z,2.18
2023-02-24T00:44:05.938Z,2.19
2023-02-24T00:46:38.057Z,2.23
2023-02-24T00:49:12.662Z,2.21
2023-02-24T00:51:44.410Z,2.18
2023-02-24T00:54:16.104Z,2.20
2023-02-24T00:56:50.463Z,2.17
2023-02-24T00:59:22.356Z,2.20
2023-02-24T01:01:51.969Z,2.21
2023-02-24T01:04:21.947Z,2.19
2023-02-24T01:07:00.441Z,2.19
2023-02-24T01:09:31.515Z,2.20
2023-02-24T01:12:16.071Z,2.18
2023-02-24T01:14:47.717Z,2.21
2023-02-24T01:17:18.369Z,2.19
2023-02-24T01:19:49.701Z,2.17
2023-02-24T01:22:21.132Z,2.15
2023-02-24T01:24:51.019Z,2.18
2023-02-24T01:27:23.005Z,2.16
2023-02-24T01:29:53.817Z,2.19
2023-02-24T01:32:25.487Z,2.16
2023-02-24T01:34:56.213Z,2.18
2023-02-24T01:37:25.877Z,2.17
2023-02-24T01:39:55.802Z,2.20
2023-02-24T01:42:27.959Z,2.23
2023-02-24T01:45:16.708Z,2.14
2023-02-24T01:47:47.343Z,2.14
2023-02-24T01:50:21.596Z,2.14
2023-02-24T01:52:56.196Z,2.15
2023-02-24T01:55:29.399Z,2.13
2023-02-24T01:58:04.745Z,2.18
2023-02-24T02:00:45.398Z,2.13
2023-02-24T02:03:24.672Z,2.11
2023-02-24T02:05:56.107Z,2.11
2023-02-24T02:08:26.401Z,2.14
2023-02-24T02:11:00.381Z,2.02
2023-02-24T02:13:35.983Z,2.00
2023-02-24T02:16:35.353Z,1.94
2023-02-24T02:19:18.755Z,1.95
2023-02-24T02:22:11.183Z,1.94
2023-02-24T02:24:48.477Z,1.97
2023-02-24T02:27:31.718Z,1.96
2023-02-24T02:30:34.014Z,1.94
2023-02-24T02:33:39.491Z,1.93
2023-02-24T02:36:16.666Z,1.95
2023-02-24T02:38:54.110Z,1.95
2023-02-24T02:41:28.550Z,1.97
2023-02-24T02:44:07.559Z,1.92
2023-02-24T02:46:42.055Z,1.91
2023-02-24T02:49:17.657Z,1.92
2023-02-24T02:51:51.832Z,1.92
2023-02-24T02:54:27.304Z,1.93
2023-02-24T02:57:01.803Z,1.91
2023-02-24T02:59:32.697Z,1.90
2023-02-24T03:02:11.822Z,1.92
2023-02-24T03:04:44.171Z,1.89
2023-02-24T03:07:17.842Z,1.91
2023-02-24T03:09:50.005Z,1.91
2023-02-24T03:12:22.127Z,1.89
2023-02-24T03:14:56.750Z,1.88
2023-02-24T03:17:28.250Z,1.92
2023-02-24T03:20:15.017Z,1.92
2023-02-24T03:22:51.791Z,1.91
2023-02-24T03:25:24.284Z,1.87
2023-02-24T03:27:56.844Z,1.87
2023-02-24T03:30:30.610Z,1.91
2023-02-24T03:33:05.641Z,1.91
2023-02-24T03:35:38.908Z,1.90
2023-02-24T03:38:10.959Z,1.91
2023-02-24T03:40:43.357Z,1.89
2023-02-24T03:43:16.961Z,1.88
2023-02-24T03:45:46.822Z,1.89
2023-02-24T03:48:17.363Z,1.89
2023-02-24T03:50:46.965Z,1.87
2023-02-24T03:53:32.247Z,1.89
2023-02-24T03:56:10.947Z,1.87
2023-02-24T03:58:47.210Z,1.86
2023-02-24T04:01:21.012Z,1.83
2023-02-24T04:03:58.935Z,1.82
2023-02-24T04:06:35.417Z,1.85
2023-02-24T04:09:12.391Z,1.84
2023-02-24T04:11:47.009Z,1.86
2023-02-24T04:14:25.102Z,1.83
2023-02-24T04:17:01.201Z,1.82
2023-02-24T04:19:33.820Z,1.79
2023-02-24T04:22:04.026Z,1.80
2023-02-24T04:24:37.029Z,1.80
2023-02-24T04:27:09.044Z,1.78
2023-02-24T04:29:47.137Z,1.77
2023-02-24T04:32:17.427Z,1.77
2023-02-24T04:34:47.000Z,1.80
2023-02-24T04:37:16.401Z,1.77
2023-02-24T04:39:48.724Z,1.78
2023-02-24T04:42:20.019Z,1.78
2023-02-24T04:44:49.730Z,1.77
2023-02-24T04:47:19.180Z,1.78
2023-02-24T04:49:48.643Z,1.79
2023-02-24T04:52:20.778Z,1.72
2023-02-24T04:54:52.786Z,1.71
2023-02-24T04:57:22.169Z,1.74
2023-02-24T04:59:53.890Z,1.71
2023-02-24T05:02:25.851Z,1.70
2023-02-24T05:04:55.373Z,1.70
2023-02-24T05:07:25.342Z,1.70
2023-02-24T05:09:58.355Z,1.67
2023-02-24T05:12:29.478Z,1.68
2023-02-24T05:15:01.362Z,1.65
2023-02-24T05:17:30.821Z,1.62
2023-02-24T05:20:12.720Z,1.62
2023-02-24T05:22:42.156Z,1.61
2023-02-24T05:25:14.612Z,1.58
2023-02-24T05:27:44.033Z,1.59
2023-02-24T05:30:15.022Z,1.60
2023-02-24T05:32:45.370Z,1.58
2023-02-24T05:35:14.792Z,1.65
2023-02-24T05:37:44.711Z,1.59
2023-02-24T05:40:19.927Z,1.58
2023-02-24T05:42:51.941Z,1.60
2023-02-24T05:45:21.313Z,1.64
2023-02-24T05:47:50.699Z,1.65
2023-02-24T05:50:26.338Z,1.61
2023-02-24T05:52:56.007Z,1.61
2023-02-24T05:55:27.995Z,1.61
2023-02-24T05:57:59.248Z,1.60
2023-02-24T06:00:28.685Z,1.57
2023-02-24T06:03:08.381Z,1.53
2023-02-24T06:05:39.814Z,1.49
2023-02-24T06:08:11.873Z,1.33
2023-02-24T06:10:46.753Z,1.25
2023-02-24T06:13:16.203Z,1.13
2023-02-24T06:15:50.592Z,1.08
2023-02-24T06:18:21.567Z,0.96
2023-02-24T06:20:51.399Z,0.89
2023-02-24T06:23:20.797Z,0.87
2023-02-24T06:25:53.299Z,0.83
2023-02-24T06:28:22.728Z,0.81
2023-02-24T06:30:52.156Z,0.77
2023-02-24T06:33:22.470Z,0.73
2023-02-24T06:35:53.404Z,0.67
2023-02-24T06:38:22.860Z,0.72
2023-02-24T06:40:57.591Z,0.71
2023-02-24T06:43:27.442Z,0.71
2023-02-24T06:45:56.908Z,0.67
2023-02-24T06:48:28.030Z,0.65
2023-02-24T06:50:57.841Z,0.66
2023-02-24T06:53:27.339Z,0.65
2023-02-24T06:56:03.104Z,0.65
2023-02-24T06:58:32.677Z,0.61
2023-02-24T07:01:04.651Z,0.61
2023-02-24T07:03:47.484Z,0.61
2023-02-24T07:06:24.073Z,0.59
2023-02-24T07:08:54.763Z,0.55
2023-02-24T07:11:27.570Z,0.57
2023-02-24T07:13:57.902Z,0.56
2023-02-24T07:16:29.339Z,0.53
2023-02-24T07:19:02.886Z,0.50
2023-02-24T07:21:39.568Z,0.49
2023-02-24T07:24:10.028Z,0.49
2023-02-24T07:26:43.847Z,0.48
2023-02-24T07:29:16.797Z,0.43
2023-02-24T07:31:46.460Z,0.42
2023-02-24T07:34:23.514Z,0.43
2023-02-24T07:36:54.670Z,0.40
2023-02-24T07:39:25.698Z,0.39
2023-02-24T07:41:59.369Z,0.36
2023-02-24T07:44:29.443Z,0.34
2023-02-24T07:46:59.529Z,0.36
2023-02-24T07:49:30.456Z,0.32
2023-02-24T07:52:00.582Z,0.27
2023-02-24T07:54:31.066Z,0.22
2023-02-24T07:57:03.294Z,0.19
2023-02-24T07:59:35.245Z,0.17
2023-02-24T08:02:07.904Z,0.19
2023-02-24T08:04:41.134Z,0.18
2023-02-24T08:07:14.472Z,0.14
2023-02-24T08:10:09.925Z,0.08
2023-02-24T08:12:43.166Z,0.11
2023-02-24T08:15:24.232Z,0.10
2023-02-24T08:17:59.577Z,0.16
2023-02-24T08:20:30.121Z,0.16
2023-02-24T08:22:59.674Z,0.17
2023-02-24T08:25:36.076Z,0.19
2023-02-24T08:28:11.761Z,0.17
2023-02-24T08:30:45.675Z,0.17
2023-02-24T08:33:18.546Z,0.18
2023-02-24T08:35:48.037Z,0.17
2023-02-24T08:38:20.413Z,0.22
2023-02-24T08:40:58.603Z,0.24
2023-02-24T08:43:35.466Z,0.25
2023-02-24T08:46:13.226Z,0.28
2023-02-24T08:48:46.479Z,0.27
2023-02-24T08:51:23.141Z,0.29
2023-02-24T08:53:54.561Z,0.31
2023-02-24T08:56:28.999Z,0.32
2023-02-24T08:59:05.695Z,0.36
2023-02-24T09:01:37.425Z,0.35
2023-02-24T09:04:09.798Z,0.36
2023-02-24T09:06:44.085Z,0.36
2023-02-24T09:09:21.324Z,0.35
2023-02-24T09:11:56.334Z,0.36
2023-02-24T09:14:30.328Z,0.42
2023-02-24T09:17:11.380Z,0.42
2023-02-24T09:19:57.501Z,0.41
2023-02-24T09:22:41.016Z,0.42
2023-02-24T09:25:24.114Z,0.44
2023-02-24T09:27:56.076Z,0.46
2023-02-24T09:30:51.204Z,0.46
2023-02-24T09:33:23.198Z,0.50
2023-02-24T09:36:03.172Z,0.52
2023-02-24T09:38:58.002Z,0.52
2023-02-24T09:41:45.328Z,0.58
2023-02-24T09:44:18.828Z,0.58
2023-02-24T09:46:56.447Z,0.57
2023-02-24T09:49:39.980Z,0.58
2023-02-24T09:52:17.181Z,0.58
2023-02-24T09:55:18.538Z,0.74
2023-02-24T09:58:27.047Z,0.77
2023-02-24T10:01:21.075Z,0.79
2023-02-24T10:04:14.852Z,0.87
2023-02-24T10:06:50.939Z,0.91
2023-02-24T10:09:26.701Z,0.96
2023-02-24T10:12:04.721Z,1.05
2023-02-24T10:14:44.400Z,1.04
2023-02-24T10:17:30.766Z,0.90
2023-02-24T10:20:14.036Z,0.94
2023-02-24T10:22:50.790Z,0.98
2023-02-24T10:25:36.432Z,1.00
2023-02-24T10:28:13.120Z,1.00
2023-02-24T10:30:50.078Z,1.05
2023-02-24T10:33:25.401Z,1.10
2023-02-24T10:36:09.669Z,1.13
2023-02-24T10:38:40.885Z,1.13
2023-02-24T10:41:12.421Z,1.12
2023-02-24T10:43:48.732Z,1.17
2023-02-24T10:46:40.081Z,1.22
2023-02-24T10:49:16.852Z,1.23
2023-02-24T10:51:54.154Z,1.29
2023-02-24T10:54:39.338Z,1.34
2023-02-24T10:57:15.873Z,1.38
2023-02-24T10:59:58.571Z,1.38
2023-02-24T11:02:33.036Z,1.46
2023-02-24T11:05:27.348Z,1.45
2023-02-24T11:08:15.857Z,1.58
2023-02-24T11:11:07.006Z,1.62
2023-02-24T11:13:49.433Z,1.71
2023-02-24T11:16:31.570Z,1.96
2023-02-24T11:19:01.017Z,2.00
2023-02-24T11:21:31.871Z,2.00
2023-02-24T11:24:04.168Z,2.27
2023-02-24T11:26:38.439Z,2.17
2023-02-24T11:29:22.991Z,2.10
2023-02-24T11:32:02.540Z,2.11
2023-02-24T11:34:37.258Z,2.06
2023-02-24T11:37:16.639Z,2.07
2023-02-24T11:39:56.051Z,2.09
2023-02-24T11:42:28.805Z,2.13
2023-02-24T11:45:02.786Z,2.15
2023-02-24T11:47:38.010Z,2.16
2023-02-24T11:50:26.671Z,2.22
2023-02-24T11:52:57.515Z,2.28
2023-02-24T11:55:35.031Z,2.34
2023-02-24T11:58:06.447Z,2.39
2023-02-24T12:00:39.913Z,2.48
2023-02-24T12:03:18.313Z,2.50
2023-02-24T12:05:51.643Z,2.56
2023-02-24T12:08:26.830Z,2.61
2023-02-24T12:11:01.783Z,2.63
2023-02-24T12:13:38.337Z,2.66
2023-02-24T12:16:12.607Z,2.75
2023-02-24T12:18:45.324Z,2.78
2023-02-24T12:21:20.229Z,2.85
2023-02-24T12:23:51.020Z,2.84
2023-02-24T12:26:25.619Z,2.97
2023-02-24T12:29:10.891Z,3.14
2023-02-24T12:31:50.978Z,3.20
2023-02-24T12:34:30.113Z,3.28
2023-02-24T12:37:32.955Z,3.31
2023-02-24T12:40:11.832Z,3.31
2023-02-24T12:42:48.972Z,3.39
2023-02-24T12:45:21.627Z,3.50
2023-02-24T12:47:58.532Z,3.64
2023-02-24T12:50:37.449Z,3.75
2023-02-24T12:53:13.928Z,3.99
2023-02-24T12:55:47.554Z,3.95
2023-02-24T12:58:22.622Z,3.95
2023-02-24T13:00:59.648Z,4.18
2023-02-24T13:03:39.954Z,4.13
2023-02-24T13:06:14.427Z,4.06
2023-02-24T13:08:53.368Z,4.05
2023-02-24T13:11:31.015Z,4.11
2023-02-24T13:14:08.889Z,4.10
2023-02-24T13:16:38.917Z,4.13
2023-02-24T13:19:10.523Z,4.21
2023-02-24T13:21:40.060Z,4.16
2023-02-24T13:24:23.292Z,4.23
2023-02-24T13:26:52.784Z,4.23
2023-02-24T13:29:24.832Z,4.22
2023-02-24T13:31:56.329Z,4.21
2023-02-24T13:34:35.316Z,4.21
2023-02-24T13:37:04.694Z,4.21
2023-02-24T13:39:37.129Z,4.18
2023-02-24T13:42:09.357Z,4.06
2023-02-24T13:44:51.237Z,4.03
2023-02-24T13:47:45.609Z,4.04
2023-02-24T13:50:25.387Z,3.87
2023-02-24T13:53:06.561Z,3.97
2023-02-24T13:55:44.164Z,3.89
2023-02-24T13:58:40.767Z,4.33
2023-02-24T14:01:15.068Z,4.89
2023-02-24T14:03:46.312Z,5.42
2023-02-24T14:06:23.117Z,5.51
2023-02-24T14:08:55.570Z,5.76
2023-02-24T14:11:28.452Z,5.54
2023-02-24T14:13:59.369Z,5.61
2023-02-24T14:16:35.820Z,5.89
2023-02-24T14:19:06.492Z,6.14
2023-02-24T14:21:36.735Z,6.30
2023-02-24T14:24:12.417Z,6.13
2023-02-24T14:26:46.240Z,6.31
2023-02-24T14:29:17.254Z,5.92
2023-02-24T14:31:53.074Z,5.70
2023-02-24T14:34:25.047Z,5.70
2023-02-24T14:36:56.585Z,5.40
2023-02-24T14:39:27.349Z,5.18
2023-02-24T14:42:12.324Z,5.06
2023-02-24T14:44:44.651Z,4.99
2023-02-24T14:47:17.992Z,4.95
2023-02-24T14:49:55.976Z,4.83
2023-02-24T14:52:31.080Z,4.72
2023-02-24T14:55:02.716Z,4.68
2023-02-24T14:57:34.607Z,4.61
2023-02-24T15:00:12.169Z,4.52
2023-02-24T15:02:49.360Z,4.46
2023-02-24T15:05:19.559Z,4.47
2023-02-24T15:07:51.662Z,4.93
2023-02-24T15:10:24.490Z,4.82
2023-02-24T15:12:55.401Z,4.59
2023-02-24T15:15:27.143Z,4.38
2023-02-24T15:18:03.057Z,4.37
2023-02-24T15:20:35.634Z,4.42
2023-02-24T15:23:06.190Z,4.39
2023-02-24T15:25:45.301Z,4.39
2023-02-24T15:28:27.156Z,4.31
2023-02-24T15:31:02.554Z,4.29
2023-02-24T15:33:38.205Z,4.22
2023-02-24T15:36:21.886Z,4.14
2023-02-24T15:38:54.651Z,4.12
2023-02-24T15:41:24.377Z,4.11
2023-02-24T15:43:56.352Z,4.10
2023-02-24T15:46:31.044Z,4.12
2023-02-24T15:49:04.613Z,4.11
2023-02-24T15:51:37.568Z,4.12
2023-02-24T15:54:09.276Z,4.09
2023-02-24T15:56:39.081Z,4.14
2023-02-24T15:59:08.740Z,4.12
2023-02-24T16:01:38.491Z,4.13
2023-02-24T16:04:11.297Z,4.09
2023-02-24T16:06:42.393Z,4.06
2023-02-24T16:09:15.527Z,4.03
2023-02-24T16:11:50.144Z,4.03
2023-02-24T16:14:20.367Z,4.01
2023-02-24T16:16:49.913Z,4.00
2023-02-24T16:19:22.403Z,3.92
2023-02-24T16:21:51.840Z,3.88
2023-02-24T16:24:21.749Z,3.87
2023-02-24T16:26:51.758Z,3.88
2023-02-24T16:29:21.475Z,3.84
2023-02-24T16:31:51.327Z,3.85
2023-02-24T16:34:23.478Z,3.84
2023-02-24T16:36:53.394Z,3.83
2023-02-24T16:39:25.580Z,3.80
2023-02-24T16:41:55.005Z,3.78
2023-02-24T16:44:25.317Z,3.77
2023-02-24T16:46:54.722Z,3.78
2023-02-24T16:49:26.746Z,3.77
2023-02-24T16:51:56.124Z,3.68
2023-02-24T16:54:29.126Z,3.64
2023-02-24T16:56:59.071Z,3.61
2023-02-24T16:59:29.031Z,3.56
2023-02-24T17:01:59.569Z,3.53
2023-02-24T17:04:32.153Z,3.49
2023-02-24T17:07:01.639Z,3.45
2023-02-24T17:09:33.329Z,3.47
2023-02-24T17:12:02.972Z,3.45
2023-02-24T17:14:32.371Z,3.41
2023-02-24T17:17:01.941Z,3.41
2023-02-24T17:19:33.938Z,3.39
2023-02-24T17:22:03.762Z,3.40
2023-02-24T17:24:33.825Z,3.40
2023-02-24T17:27:04.411Z,3.37
2023-02-24T17:29:33.883Z,3.33
2023-02-24T17:32:03.957Z,3.32
2023-02-24T17:34:38.822Z,3.23
2023-02-24T17:37:08.456Z,3.13
2023-02-24T17:39:37.930Z,3.12
2023-02-24T17:42:07.455Z,3.08
2023-02-24T17:44:37.367Z,3.03
2023-02-24T17:47:08.993Z,2.99
2023-02-24T17:49:41.304Z,2.97
2023-02-24T17:52:11.351Z,2.92
2023-02-24T17:54:40.797Z,2.86
2023-02-24T17:57:11.022Z,2.88
2023-02-24T17:59:40.881Z,2.82
2023-02-24T18:02:10.306Z,2.80
2023-02-24T18:04:42.971Z,2.76
2023-02-24T18:07:13.448Z,2.75
2023-02-24T18:09:43.099Z,2.68
2023-02-24T18:12:12.546Z,2.65
2023-02-24T18:14:42.292Z,2.68
2023-02-24T18:17:11.673Z,2.68
2023-02-24T18:19:43.845Z,2.63
2023-02-24T18:22:13.275Z,2.61
2023-02-24T18:24:42.687Z,2.60
2023-02-24T18:27:12.187Z,2.59
2023-02-24T18:29:41.777Z,2.58
2023-02-24T18:32:11.686Z,2.53
2023-02-24T18:34:43.763Z,2.51
2023-02-24T18:37:13.478Z,2.50
2023-02-24T18:39:42.893Z,2.51
2023-02-24T18:42:12.383Z,2.50
2023-02-24T18:44:41.817Z,2.52
2023-02-24T18:47:11.772Z,2.53
2023-02-24T18:49:43.823Z,2.55
2023-02-24T18:52:14.379Z,2.60
2023-02-24T18:54:43.771Z,2.61
2023-02-24T18:57:13.749Z,2.63
2023-02-24T18:59:43.180Z,2.62
2023-02-24T19:02:13.223Z,2.64
2023-02-24T19:04:46.105Z,2.64
2023-02-24T19:07:15.884Z,2.68
2023-02-24T19:09:45.598Z,2.69
2023-02-24T19:12:15.050Z,2.67
2023-02-24T19:14:45.742Z,2.68
2023-02-24T19:17:18.425Z,2.70
2023-02-24T19:19:50.860Z,2.68
2023-02-24T19:22:20.978Z,2.67
2023-02-24T19:24:50.473Z,2.66
2023-02-24T19:27:21.272Z,2.64
2023-02-24T19:29:54.353Z,2.62
2023-02-24T19:32:24.054Z,2.61
2023-02-24T19:34:58.634Z,2.54
2023-02-24T19:37:28.239Z,2.54
2023-02-24T19:39:57.902Z,2.53
2023-02-24T19:42:27.566Z,2.51
2023-02-24T19:44:59.873Z,2.49
2023-02-24T19:47:29.310Z,2.48
2023-02-24T19:50:04.587Z,2.50
2023-02-24T19:52:34.066Z,2.49
2023-02-24T19:55:03.485Z,2.53
2023-02-24T19:57:32.887Z,2.50
2023-02-24T20:00:02.304Z,2.49
2023-02-24T20:02:31.966Z,2.54
2023-02-24T20:05:04.108Z,2.55
2023-02-24T20:07:33.494Z,2.56
2023-02-24T20:10:03.229Z,2.55
2023-02-24T20:12:32.619Z,2.59
2023-02-24T20:15:02.417Z,2.60
2023-02-24T20:17:32.416Z,2.64
2023-02-24T20:20:04.565Z,2.66
2023-02-24T20:22:34.340Z,2.60
2023-02-24T20:25:03.725Z,2.56
2023-02-24T20:27:34.035Z,2.59
2023-02-24T20:30:03.811Z,2.64
2023-02-24T20:32:33.359Z,2.61
2023-02-24T20:35:05.700Z,2.58
2023-02-24T20:37:35.660Z,2.53
2023-02-24T20:40:05.480Z,2.58
2023-02-24T20:42:34.856Z,2.61
2023-02-24T20:45:04.258Z,2.61
2023-02-24T20:47:33.751Z,2.58
2023-02-24T20:50:06.681Z,2.59
2023-02-24T20:52:37.672Z,2.54
2023-02-24T20:55:07.723Z,2.55
2023-02-24T20:57:37.282Z,2.55
2023-02-24T21:00:08.304Z,2.57
2023-02-24T21:02:40.355Z,2.52
2023-02-24T21:05:20.653Z,2.54
2023-02-24T21:07:52.000Z,2.53
2023-02-24T21:10:22.930Z,2.55
2023-02-24T21:12:52.643Z,2.56
2023-02-24T21:15:22.332Z,2.59
2023-02-24T21:17:51.969Z,2.60
2023-02-24T21:20:24.509Z,2.62
2023-02-24T21:22:54.693Z,2.62
2023-02-24T21:25:24.450Z,2.64
2023-02-24T21:27:54.137Z,2.62
2023-02-24T21:30:24.043Z,2.58
2023-02-24T21:32:53.731Z,2.55
2023-02-24T21:35:26.066Z,2.56
2023-02-24T21:37:55.592Z,2.60
2023-02-24T21:40:25.115Z,2.50
2023-02-24T21:42:54.841Z,2.44
2023-02-24T21:45:24.594Z,2.36
2023-02-24T21:47:54.367Z,2.25
2023-02-24T21:50:26.488Z,2.18
2023-02-24T21:52:56.197Z,2.14
2023-02-24T21:55:26.064Z,2.12
2023-02-24T21:57:56.369Z,2.10
2023-02-24T22:00:26.266Z,2.10
2023-02-24T22:02:58.199Z,2.11
2023-02-24T22:05:30.589Z,2.06
2023-02-24T22:08:00.178Z,2.02
2023-02-24T22:10:29.647Z,1.98
2023-02-24T22:13:01.580Z,1.89
2023-02-24T22:15:31.379Z,1.89
2023-02-24T22:18:01.053Z,1.85
2023-02-24T22:20:33.391Z,1.82
2023-02-24T22:23:02.898Z,1.83
2023-02-24T22:25:32.327Z,1.80
2023-02-24T22:28:02.163Z,1.80
2023-02-24T22:30:32.087Z,1.81
2023-02-24T22:33:01.809Z,1.82
2023-02-24T22:35:36.388Z,1.80
2023-02-24T22:40:08.276Z,1.73
2023-02-24T22:42:36.357Z,1.71
2023-02-24T22:45:04.562Z,1.67
2023-02-24T22:47:32.715Z,1.66
2023-02-24T22:50:00.826Z,1.61
2023-02-24T22:54:35.646Z,1.51
2023-02-24T22:57:03.691Z,1.46
2023-02-24T22:59:32.332Z,1.48
2023-02-24T23:02:00.873Z,1.45
2023-02-24T23:04:29.127Z,1.40
2023-02-24T23:06:57.273Z,1.42
2023-02-24T23:09:25.855Z,1.39
2023-02-24T23:11:57.901Z,1.41
2023-02-24T23:14:27.266Z,1.39
2023-02-24T23:16:58.810Z,1.41
2023-02-24T23:19:28.312Z,1.34
2023-02-24T23:21:57.721Z,1.32
2023-02-24T23:24:27.174Z,1.31
2023-02-24T23:27:00.092Z,1.31
2023-02-24T23:29:30.768Z,1.28
2023-02-24T23:32:00.693Z,1.27
2023-02-24T23:34:30.136Z,1.20
2023-02-24T23:36:59.583Z,1.27
2023-02-24T23:39:29.002Z,1.28
2023-02-24T23:42:01.086Z,1.24
2023-02-24T23:44:30.522Z,1.21
2023-02-24T23:47:01.244Z,1.21
2023-02-24T23:49:46.147Z,1.21
2023-02-24T23:52:17.127Z,1.20
2023-02-24T23:54:46.569Z,1.15
2023-02-24T23:57:18.612Z,1.16
2023-02-24T23:59:48.039Z,1.18
